Time;durP1;ratioP1;P1;durP2;ratioP2;P2;SDS_P1;SDS_P2;PMS_P1;PMS_P2;Temp;Humidity;BMP_temperature;BMP_pressure;BME280_temperature;BME280_humidity;BME280_pressure;Samples;Min_cycle;Max_cycle;Signal;HPM_P1;HPM_P2
2022/12/14 00:00:51;;;;;;;89.10;45.10;;;;;;;-3.62;85.34;98497.40;85814;1283;22485;-71
2022/12/14 00:02:54;;;;;;;86.90;46.80;;;;;;;-3.66;85.36;98498.42;85897;1281;99245;-71
2022/12/14 00:04:56;;;;;;;85.80;44.30;;;;;;;-3.67;85.21;98501.69;85914;1291;22601;-71
2022/12/14 00:06:58;;;;;;;90.50;46.40;;;;;;;-3.70;85.11;98497.39;85839;1289;23948;-69
2022/12/14 00:09:02;;;;;;;100.30;47.70;;;;;;;-3.72;85.09;98495.84;85170;1283;99392;-70
2022/12/14 00:11:06;;;;;;;97.20;47.40;;;;;;;-3.82;85.14;98484.16;85152;1286;24567;-70
2022/12/14 00:13:09;;;;;;;94.70;48.20;;;;;;;-3.75;85.23;98492.41;85944;1290;22480;-71
2022/12/14 00:15:11;;;;;;;89.90;47.60;;;;;;;-3.76;85.23;98493.94;85757;1283;99045;-71
2022/12/14 00:17:13;;;;;;;95.20;48.30;;;;;;;-3.76;85.21;98493.43;85985;1289;25376;-71
2022/12/14 00:19:14;;;;;;;88.30;46.90;;;;;;;-3.75;85.32;98495.84;85977;1280;24282;-70
2022/12/14 00:21:17;;;;;;;88.10;43.50;;;;;;;-3.76;85.33;98496.35;85788;1288;99162;-70
2022/12/14 00:23:18;;;;;;;97.20;44.50;;;;;;;-3.79;85.17;98491.71;85841;1283;22504;-71
2022/12/14 00:25:21;;;;;;;89.50;44.50;;;;;;;-3.84;85.06;98489.98;85849;1283;26879;-71
2022/12/14 00:27:23;;;;;;;91.00;45.00;;;;;;;-3.91;84.85;98483.45;85874;1284;99552;-70
2022/12/14 00:29:24;;;;;;;86.60;42.10;;;;;;;-3.95;84.88;98488.59;85970;1280;22577;-71
2022/12/14 00:31:26;;;;;;;83.50;42.70;;;;;;;-4.00;84.61;98487.04;86007;1280;22549;-71
2022/12/14 00:33:28;;;;;;;78.10;38.50;;;;;;;-4.02;84.81;98486.70;85794;1283;99563;-71
2022/12/14 00:35:30;;;;;;;75.60;40.40;;;;;;;-4.03;84.88;98481.71;85933;1290;22528;-71
2022/12/14 00:37:32;;;;;;;88.20;45.50;;;;;;;-4.04;84.99;98481.02;85811;1283;22547;-70
2022/12/14 00:39:33;;;;;;;83.80;42.40;;;;;;;-4.05;84.76;98483.59;85949;1280;99138;-70
2022/12/14 00:41:35;;;;;;;84.40;41.90;;;;;;;-4.07;84.85;98487.89;85950;1282;22645;-71
2022/12/14 00:43:37;;;;;;;82.10;44.80;;;;;;;-4.07;85.05;98485.48;86094;1302;22840;-71
2022/12/14 00:45:39;;;;;;;80.80;42.20;;;;;;;-4.06;84.99;98482.89;86141;1290;99204;-70
2022/12/14 00:47:40;;;;;;;86.40;42.00;;;;;;;-4.09;84.85;98486.34;85933;1283;24099;-70
2022/12/14 00:49:42;;;;;;;93.00;44.80;;;;;;;-4.12;84.85;98488.55;85958;1283;25408;-70
2022/12/14 00:51:43;;;;;;;82.80;43.70;;;;;;;-4.14;84.77;98490.60;85917;1288;99074;-70
2022/12/14 00:53:45;;;;;;;78.00;38.80;;;;;;;-4.15;84.81;98487.17;85869;1286;24255;-69
2022/12/14 00:55:47;;;;;;;77.10;39.70;;;;;;;-4.16;84.67;98487.17;85879;1291;22494;-70
2022/12/14 00:57:49;;;;;;;84.80;41.80;;;;;;;-4.16;84.96;98485.80;85629;1286;99150;-70
2022/12/14 00:59:51;;;;;;;88.00;42.40;;;;;;;-4.17;84.84;98485.61;86125;1288;24267;-71
2022/12/14 01:01:53;;;;;;;87.90;44.80;;;;;;;-4.19;84.80;98486.65;86134;1289;22642;-70
2022/12/14 01:04:15;;;;;;;105.20;49.00;;;;;;;-4.21;84.68;98480.63;85897;1283;98829;-70
2022/12/14 01:06:20;;;;;;;91.30;45.30;;;;;;;-4.28;84.61;98480.44;85820;1287;24275;-71
2022/12/14 01:08:22;;;;;;;97.30;46.40;;;;;;;-4.37;84.29;98478.69;85884;1290;98899;-70
2022/12/14 01:10:24;;;;;;;92.30;46.00;;;;;;;-4.44;84.13;98477.81;86006;1283;22523;-70
2022/12/14 01:12:26;;;;;;;99.90;47.60;;;;;;;-4.52;84.26;98476.06;86034;1283;22485;-71
2022/12/14 01:14:27;;;;;;;93.90;46.70;;;;;;;-4.57;84.16;98477.92;85994;1287;99486;-72
2022/12/14 01:16:29;;;;;;;90.40;46.90;;;;;;;-4.61;84.27;98476.20;86007;1283;22516;-70
2022/12/14 01:18:34;;;;;;;100.30;48.40;;;;;;;-4.62;84.39;98475.33;85966;1283;24260;-70
2022/12/14 01:20:35;;;;;;;92.30;46.50;;;;;;;-4.64;84.32;98473.61;85813;1283;99495;-71
2022/12/14 01:22:37;;;;;;;88.10;46.10;;;;;;;-4.65;84.42;98473.95;85989;1283;22429;-70
2022/12/14 01:24:39;;;;;;;86.70;46.00;;;;;;;-4.65;84.50;98472.08;85883;1283;26596;-71
2022/12/14 01:26:40;;;;;;;95.40;49.50;;;;;;;-4.68;84.41;98466.05;85871;1284;98804;-70
2022/12/14 01:28:44;;;;;;;89.60;47.40;;;;;;;-4.69;84.38;98463.66;85945;1283;22495;-70
2022/12/14 01:30:45;;;;;;;97.60;49.30;;;;;;;-4.70;84.57;98466.23;85950;1289;22627;-70
2022/12/14 01:32:47;;;;;;;94.60;47.30;;;;;;;-4.71;84.51;98465.52;85878;1290;99357;-71
2022/12/14 01:34:49;;;;;;;91.40;48.50;;;;;;;-4.74;84.29;98463.80;85967;1289;22515;-70
2022/12/14 01:36:50;;;;;;;92.50;47.20;;;;;;;-4.76;84.20;98462.59;85978;1283;22494;-71
2022/12/14 01:38:57;;;;;;;95.90;49.40;;;;;;;-4.75;84.42;98462.58;85678;1283;99340;-74
2022/12/14 01:40:59;;;;;;;95.50;49.50;;;;;;;-4.75;84.42;98462.07;86014;1289;22616;-71
2022/12/14 01:43:01;;;;;;;98.10;50.20;;;;;;;-4.75;84.47;98459.50;85947;1289;22659;-70
2022/12/14 01:45:03;;;;;;;95.70;48.30;;;;;;;-4.75;84.54;98456.41;86059;1288;99771;-70
2022/12/14 01:47:20;;;;;;;93.00;48.40;;;;;;;-4.74;84.58;98457.10;86213;1280;24382;-69
2022/12/14 01:49:43;;;;;;;110.20;52.40;;;;;;;-4.74;84.65;98451.63;86269;1280;22550;-70
2022/12/14 01:51:53;;;;;;;109.90;55.10;;;;;;;-4.75;84.51;98452.30;86287;1280;100185;-71
2022/12/14 01:53:59;;;;;;;102.00;51.60;;;;;;;-4.74;84.68;98453.16;86629;1288;22806;-69
2022/12/14 01:56:02;;;;;;;104.50;52.70;;;;;;;-4.74;84.62;98455.06;86294;1291;24272;-70
2022/12/14 01:58:11;;;;;;;96.40;48.40;;;;;;;-4.77;84.64;98449.05;86094;1300;98451;-70
2022/12/14 02:00:14;;;;;;;98.60;48.90;;;;;;;-4.84;84.11;98447.46;86394;1288;22557;-69
2022/12/14 02:02:18;;;;;;;96.90;49.40;;;;;;;-4.91;84.12;98449.99;86346;1298;22579;-71
2022/12/14 02:04:21;;;;;;;98.70;49.40;;;;;;;-5.00;83.88;98454.41;86448;1290;22661;-70
2022/12/14 02:06:35;;;;;;;101.00;51.80;;;;;;;-5.08;83.80;98442.55;86025;1299;23961;-70
2022/12/14 02:08:38;;;;;;;101.30;50.80;;;;;;;-5.18;83.69;98440.77;86142;1306;99615;-69
2022/12/14 02:10:40;;;;;;;95.60;52.70;;;;;;;-5.26;83.41;98437.13;86367;1288;22478;-70
2022/12/14 02:12:51;;;;;;;105.30;54.00;;;;;;;-5.36;83.41;98439.64;86424;1297;22563;-69
2022/12/14 02:14:54;;;;;;;103.40;51.60;;;;;;;-5.45;83.32;98436.48;86617;1291;265485;-70
2022/12/14 02:16:56;;;;;;;106.20;53.10;;;;;;;-5.53;83.24;98435.39;87041;1283;22511;-70
2022/12/14 02:18:58;;;;;;;103.30;49.80;;;;;;;-5.60;83.25;98434.67;87152;1291;22549;-71
2022/12/14 02:21:23;;;;;;;102.20;50.30;;;;;;;-5.66;83.28;98435.98;87428;1291;99429;-69
2022/12/14 02:23:52;;;;;;;98.80;53.10;;;;;;;-5.69;83.37;98432.05;87800;1297;22531;-70
2022/12/14 02:26:27;;;;;;;108.00;54.10;;;;;;;-5.68;83.62;98439.73;86483;1288;24553;-70
2022/12/14 02:28:29;;;;;;;105.30;53.60;;;;;;;-5.67;83.58;98436.31;86480;1283;22814;-70
2022/12/14 02:30:39;;;;;;;101.00;51.10;;;;;;;-5.65;83.80;98440.79;86664;1286;22435;-70
2022/12/14 02:33:06;;;;;;;99.70;51.50;;;;;;;-5.66;83.72;98440.27;86510;1286;99672;-70
2022/12/14 02:35:34;;;;;;;89.40;47.00;;;;;;;-5.61;83.72;98434.48;86398;1283;22545;-70
2022/12/14 02:38:05;;;;;;;106.80;50.80;;;;;;;-5.58;83.89;98432.96;86262;1288;23858;-70
2022/12/14 02:40:33;;;;;;;99.50;48.60;;;;;;;-5.55;84.12;98432.30;86084;1283;98572;-70
2022/12/14 02:43:01;;;;;;;103.50;49.90;;;;;;;-5.50;84.17;98430.97;86226;1290;25255;-70
2022/12/14 02:45:29;;;;;;;102.10;51.80;;;;;;;-5.47;84.13;98429.11;86139;1294;99462;-70
2022/12/14 02:47:30;;;;;;;96.60;51.60;;;;;;;-5.44;84.23;98431.20;86192;1290;22543;-70
2022/12/14 02:49:37;;;;;;;113.80;56.90;;;;;;;-5.42;84.12;98431.88;86117;1283;25377;-69
2022/12/14 02:52:17;;;;;;;90.10;48.90;;;;;;;-5.43;84.13;98426.23;86011;1283;99385;-70
2022/12/14 02:54:37;;;;;;;109.80;54.80;;;;;;;-5.43;84.19;98429.83;85993;1280;23178;-70
2022/12/14 02:56:46;;;;;;;93.90;50.90;;;;;;;-5.47;83.84;98425.35;85811;1290;99652;-69
2022/12/14 02:58:49;;;;;;;97.80;53.80;;;;;;;-5.51;83.77;98421.23;85869;1289;23930;-69
2022/12/14 03:00:54;;;;;;;101.30;52.70;;;;;;;-5.53;83.74;98415.73;86263;1283;22518;-71
2022/12/14 03:02:58;;;;;;;97.50;52.20;;;;;;;-5.55;83.82;98410.75;86170;1285;100318;-69
2022/12/14 03:05:01;;;;;;;97.50;51.40;;;;;;;-5.58;83.71;98409.02;86132;1281;25392;-71
2022/12/14 03:07:31;;;;;;;101.40;52.00;;;;;;;-5.60;83.60;98405.58;86167;1290;25452;-69
2022/12/14 03:09:33;;;;;;;92.00;47.80;;;;;;;-5.61;83.63;98407.45;86381;1280;99342;-70
2022/12/14 03:11:51;;;;;;;101.10;52.10;;;;;;;-5.61;83.74;98404.02;85923;1286;26645;-70
2022/12/14 03:14:04;;;;;;;100.50;53.20;;;;;;;-5.59;83.94;98410.02;85854;1283;25388;-69
2022/12/14 03:16:12;;;;;;;95.30;50.30;;;;;;;-5.61;83.95;98408.98;85364;1283;99368;-69
2022/12/14 03:18:18;;;;;;;99.60;52.10;;;;;;;-5.66;83.66;98412.36;85994;1288;22567;-70
2022/12/14 03:20:24;;;;;;;90.20;49.50;;;;;;;-5.70;83.63;98409.61;86083;1283;22621;-69
2022/12/14 03:22:41;;;;;;;95.80;46.80;;;;;;;-5.73;83.48;98411.63;86084;1283;24318;-69
2022/12/14 03:24:51;;;;;;;91.70;48.70;;;;;;;-5.76;83.40;98407.68;85950;1289;22550;-69
2022/12/14 03:27:19;;;;;;;97.40;51.40;;;;;;;-5.78;83.48;98411.25;85768;1283;99279;-69
2022/12/14 03:29:33;;;;;;;96.30;50.90;;;;;;;-5.80;83.41;98409.54;86561;1283;22587;-69
2022/12/14 03:31:57;;;;;;;100.00;50.70;;;;;;;-5.81;83.51;98412.95;85988;1283;22614;-69
2022/12/14 03:34:02;;;;;;;96.40;49.30;;;;;;;-5.85;83.58;98412.06;85999;1283;99565;-70
2022/12/14 03:36:25;;;;;;;99.10;50.10;;;;;;;-5.83;83.48;98420.11;86220;1289;23790;-70
2022/12/14 03:38:37;;;;;;;93.60;49.50;;;;;;;-5.85;83.49;98420.77;86097;1288;100806;-68
2022/12/14 03:41:17;;;;;;;103.70;53.00;;;;;;;-5.86;83.62;98420.94;85769;1288;22484;-68
2022/12/14 03:43:31;;;;;;;101.30;53.80;;;;;;;-5.86;83.70;98417.02;85673;1297;23246;-70
2022/12/14 03:46:14;;;;;;;92.50;49.80;;;;;;;-5.87;83.65;98414.95;85705;1280;100087;-69
2022/12/14 03:48:44;;;;;;;104.40;55.10;;;;;;;-5.88;83.57;98411.33;85768;1290;24118;-70
2022/12/14 03:51:00;;;;;;;95.80;53.60;;;;;;;-5.88;83.65;98412.20;85294;1294;99509;-69
2022/12/14 03:53:18;;;;;;;106.70;54.40;;;;;;;-5.90;83.45;98410.48;85544;1287;25537;-69
2022/12/14 03:55:30;;;;;;;97.20;53.70;;;;;;;-5.94;83.63;98408.05;86130;1291;22931;-70
2022/12/14 03:57:32;;;;;;;100.70;55.40;;;;;;;-6.00;83.35;98406.65;85974;1315;99196;-69
2022/12/14 04:00:00;;;;;;;103.60;53.90;;;;;;;-6.06;83.18;98401.81;86094;1293;24072;-69
2022/12/14 04:02:17;;;;;;;102.70;54.10;;;;;;;-6.14;82.91;98395.92;87002;1294;22239;-70
2022/12/14 04:04:27;;;;;;;109.60;56.30;;;;;;;-6.23;82.88;98397.55;87471;1300;98115;-70
2022/12/14 04:06:28;;;;;;;104.40;52.40;;;;;;;-6.32;82.77;98395.92;87504;1297;23094;-69
2022/12/14 04:08:46;;;;;;;95.80;52.70;;;;;;;-6.40;82.54;98396.54;87406;1290;99030;-70
2022/12/14 04:20:34;;;;;;;105.60;55.70;;;;;;;-6.70;82.66;98394.35;85197;1290;99932;-69
2022/12/14 04:22:45;;;;;;;97.00;55.00;;;;;;;-6.69;82.72;98400.66;85167;1292;22464;-68
2022/12/14 04:27:42;;;;;;;102.00;56.40;;;;;;;-6.73;82.76;98389.35;85268;1280;99558;-68
2022/12/14 04:29:56;;;;;;;101.00;55.50;;;;;;;-6.75;82.55;98386.42;85408;1287;22577;-68
2022/12/14 04:32:06;;;;;;;97.60;54.10;;;;;;;-6.78;82.51;98389.12;85811;1287;22797;-69
2022/12/14 04:34:12;;;;;;;101.70;55.20;;;;;;;-6.78;82.60;98389.97;86319;1280;99760;-69
2022/12/14 04:36:22;;;;;;;98.80;53.50;;;;;;;-6.79;82.70;98385.35;86171;1291;26448;-69
2022/12/14 04:38:36;;;;;;;91.60;51.80;;;;;;;-6.79;82.73;98380.05;86751;1295;25386;-69
2022/12/14 04:40:44;;;;;;;93.90;54.10;;;;;;;-6.77;82.68;98378.89;86177;1301;24283;-69
2022/12/14 04:42:54;;;;;;;105.30;56.10;;;;;;;-6.74;82.84;98378.76;86144;1291;22531;-70
2022/12/14 04:45:10;;;;;;;102.70;58.40;;;;;;;-6.68;83.01;98379.66;86028;1288;99587;-69
2022/12/14 04:47:16;;;;;;;98.50;56.70;;;;;;;-6.63;83.08;98379.21;85883;1290;22625;-69
2022/12/14 04:49:34;;;;;;;103.50;57.50;;;;;;;-6.59;83.29;98378.06;86136;1288;25669;-68
2022/12/14 04:51:44;;;;;;;108.50;58.80;;;;;;;-6.57;83.17;98375.17;85964;1280;99460;-69
2022/12/14 04:53:51;;;;;;;97.50;55.00;;;;;;;-6.57;83.05;98379.44;85386;1291;22473;-69
2022/12/14 04:55:56;;;;;;;109.60;59.20;;;;;;;-6.58;83.03;98372.77;85316;1283;22525;-70
2022/12/14 04:58:03;;;;;;;101.00;58.10;;;;;;;-6.55;82.97;98373.48;85310;1287;99472;-69
2022/12/14 05:00:06;;;;;;;97.70;55.70;;;;;;;-6.53;83.24;98368.20;86195;1283;25399;-69
2022/12/14 05:02:40;;;;;;;96.70;56.40;;;;;;;-6.49;83.20;98369.27;85891;1290;22471;-70
2022/12/14 05:05:00;;;;;;;98.90;58.90;;;;;;;-6.44;83.36;98360.77;86007;1288;22478;-69
2022/12/14 05:07:41;;;;;;;112.70;61.80;;;;;;;-6.41;83.32;98357.38;86265;1290;22509;-69
2022/12/14 05:10:08;;;;;;;108.10;62.40;;;;;;;-6.41;83.38;98355.34;86011;1288;99781;-69
2022/12/14 05:12:19;;;;;;;107.30;60.80;;;;;;;-6.42;83.13;98353.60;85990;1291;22564;-68
2022/12/14 05:14:32;;;;;;;103.70;59.20;;;;;;;-6.44;83.20;98353.60;86089;1291;25855;-68
2022/12/14 05:16:35;;;;;;;164.80;84.90;;;;;;;-6.45;83.15;98347.27;86084;1285;98683;-69
2022/12/14 05:18:37;;;;;;;177.80;92.50;;;;;;;-6.45;83.01;98344.35;85874;1291;22546;-69
2022/12/14 05:20:39;;;;;;;162.90;85.90;;;;;;;-6.45;83.05;98339.91;85980;1288;99485;-68
2022/12/14 05:22:40;;;;;;;148.70;78.40;;;;;;;-6.46;83.00;98336.66;85898;1283;24249;-69
2022/12/14 05:24:42;;;;;;;164.30;81.10;;;;;;;-6.48;82.95;98335.61;86041;1296;22592;-68
2022/12/14 05:26:44;;;;;;;154.50;77.80;;;;;;;-6.49;82.85;98339.52;85005;1289;99815;-69
2022/12/14 05:28:45;;;;;;;142.30;76.40;;;;;;;-6.52;82.90;98332.67;85175;1284;22491;-69
2022/12/14 05:30:47;;;;;;;130.80;69.70;;;;;;;-6.54;82.88;98325.82;85143;1290;22470;-69
2022/12/14 05:32:49;;;;;;;125.30;68.60;;;;;;;-6.57;82.75;98321.35;85047;1286;100030;-70
2022/12/14 05:34:51;;;;;;;115.00;65.10;;;;;;;-6.58;82.81;98323.73;85181;1294;22486;-68
2022/12/14 05:36:53;;;;;;;113.50;61.50;;;;;;;-6.61;82.72;98320.79;85227;1287;25366;-69
2022/12/14 05:38:55;;;;;;;103.20;60.00;;;;;;;-6.62;82.60;98320.44;85957;1291;99183;-69
2022/12/14 05:40:56;;;;;;;108.30;59.60;;;;;;;-6.64;82.67;98320.25;86134;1286;23721;-72
2022/12/14 05:43:06;;;;;;;112.60;62.20;;;;;;;-6.65;82.83;98322.97;86091;1288;22621;-68
2022/12/14 05:45:10;;;;;;;107.40;59.30;;;;;;;-6.66;82.82;98324.50;86075;1288;99665;-69
2022/12/14 05:47:13;;;;;;;105.00;58.20;;;;;;;-6.67;82.86;98324.32;86035;1291;22551;-69
2022/12/14 05:49:15;;;;;;;100.90;58.20;;;;;;;-6.65;82.91;98323.49;85920;1289;24190;-69
2022/12/14 05:51:17;;;;;;;105.50;61.10;;;;;;;-6.62;82.94;98326.59;85723;1286;99471;-68
2022/12/14 05:53:18;;;;;;;102.10;60.50;;;;;;;-6.59;83.04;98325.27;85151;1283;23892;-69
2022/12/14 05:55:21;;;;;;;103.80;58.50;;;;;;;-6.59;83.10;98322.19;85108;1283;22480;-70
2022/12/14 05:57:22;;;;;;;104.00;61.00;;;;;;;-6.52;83.32;98326.18;86005;1286;99324;-71
2022/12/14 05:59:24;;;;;;;97.90;58.60;;;;;;;-6.51;83.26;98326.36;85944;1283;22572;-68
2022/12/14 06:01:26;;;;;;;102.80;59.20;;;;;;;-6.51;83.21;98330.12;84978;1297;22604;-71
2022/12/14 06:03:28;;;;;;;97.70;57.80;;;;;;;-6.51;83.20;98336.27;84861;1289;99428;-71
2022/12/14 06:05:29;;;;;;;107.10;59.80;;;;;;;-6.51;83.07;98338.49;85718;1290;22475;-70
2022/12/14 06:07:31;;;;;;;100.80;58.40;;;;;;;-6.49;83.18;98340.56;85799;1291;24303;-70
2022/12/14 06:09:33;;;;;;;103.90;58.70;;;;;;;-6.47;83.07;98340.23;85772;1297;99327;-69
2022/12/14 06:11:39;;;;;;;103.50;61.30;;;;;;;-6.45;83.18;98340.42;85992;1291;22687;-70
2022/12/14 06:13:42;;;;;;;106.50;59.90;;;;;;;-6.44;83.20;98343.68;86220;1290;26243;-70
2022/12/14 06:15:43;;;;;;;101.00;59.90;;;;;;;-6.43;83.18;98346.09;85701;1291;100166;-69
2022/12/14 06:17:45;;;;;;;102.00;59.30;;;;;;;-6.42;83.24;98338.23;85928;1286;22528;-70
2022/12/14 06:19:47;;;;;;;111.00;61.80;;;;;;;-6.40;83.27;98337.05;85825;1291;24159;-70
2022/12/14 06:21:49;;;;;;;144.20;81.50;;;;;;;-6.40;83.18;98334.48;85782;1286;99546;-70
2022/12/14 06:23:51;;;;;;;109.10;61.20;;;;;;;-6.42;83.12;98332.25;85785;1296;25731;-70
2022/12/14 06:25:54;;;;;;;145.80;68.90;;;;;;;-6.46;83.01;98319.57;85619;1290;24343;-71
2022/12/14 06:27:56;;;;;;;142.70;69.70;;;;;;;-6.48;82.98;98322.29;85865;1284;99832;-70
2022/12/14 06:29:58;;;;;;;141.20;76.00;;;;;;;-6.50;83.01;98321.92;85652;1289;22585;-70
2022/12/14 06:32:00;;;;;;;132.30;72.30;;;;;;;-6.53;82.81;98317.80;85778;1294;22531;-70
2022/12/14 06:34:02;;;;;;;122.10;68.80;;;;;;;-6.55;82.93;98317.77;85930;1288;99492;-70
2022/12/14 06:36:04;;;;;;;114.50;68.90;;;;;;;-6.58;82.87;98318.95;85936;1304;22642;-70
2022/12/14 06:38:06;;;;;;;115.30;66.00;;;;;;;-6.58;82.87;98315.52;86084;1291;22491;-70
2022/12/14 06:40:08;;;;;;;118.70;69.00;;;;;;;-6.58;82.96;98311.25;85758;1288;100146;-71
2022/12/14 06:42:10;;;;;;;131.80;72.90;;;;;;;-6.59;82.88;98308.85;85803;1291;22591;-71
2022/12/14 06:44:13;;;;;;;136.80;77.20;;;;;;;-6.61;82.87;98308.51;85828;1283;22511;-71
2022/12/14 06:46:16;;;;;;;130.20;75.80;;;;;;;-6.62;82.84;98303.02;85993;1287;99351;-71
2022/12/14 06:48:18;;;;;;;130.40;74.60;;;;;;;-6.63;82.87;98306.75;85805;1282;22503;-71
2022/12/14 06:50:20;;;;;;;143.30;71.90;;;;;;;-6.63;82.84;98315.13;85790;1288;23291;-71
2022/12/14 06:52:22;;;;;;;121.00;70.00;;;;;;;-6.62;82.87;98319.92;85758;1292;99396;-71
2022/12/14 06:54:23;;;;;;;120.30;67.90;;;;;;;-6.61;82.91;98322.50;85685;1289;24321;-70
2022/12/14 06:56:26;;;;;;;116.50;66.30;;;;;;;-6.61;82.94;98322.16;85790;1289;23723;-70
2022/12/14 06:58:28;;;;;;;109.30;61.90;;;;;;;-6.61;82.91;98320.11;85817;1290;99456;-70
2022/12/14 07:00:29;;;;;;;112.20;65.00;;;;;;;-6.60;82.93;98321.32;85677;1289;22480;-70
2022/12/14 07:02:31;;;;;;;107.00;60.90;;;;;;;-6.59;82.97;98324.06;85897;1287;22899;-71
2022/12/14 07:04:33;;;;;;;109.00;64.30;;;;;;;-6.57;83.00;98326.64;85854;1287;99798;-70
2022/12/14 07:06:37;;;;;;;105.50;62.00;;;;;;;-6.55;82.94;98328.20;85967;1291;22634;-70
2022/12/14 07:08:39;;;;;;;117.00;68.70;;;;;;;-6.56;83.16;98313.67;85916;1291;100076;-71
2022/12/14 07:10:41;;;;;;;115.90;66.80;;;;;;;-6.50;83.10;98317.48;85832;1287;22619;-71
2022/12/14 07:12:42;;;;;;;127.70;69.70;;;;;;;-6.49;83.09;98313.55;85804;1283;25569;-70
2022/12/14 07:14:44;;;;;;;141.80;83.60;;;;;;;-6.47;83.01;98313.73;85692;1291;99583;-70
2022/12/14 07:16:46;;;;;;;166.80;96.90;;;;;;;-6.47;83.04;98316.48;85796;1283;22518;-70
2022/12/14 07:18:48;;;;;;;180.80;100.30;;;;;;;-6.47;82.97;98311.20;85824;1286;22635;-70
2022/12/14 07:21:01;;;;;;;174.00;97.20;;;;;;;-6.46;82.99;98311.89;85788;1287;99885;-69
2022/12/14 07:23:03;;;;;;;176.10;97.30;;;;;;;-6.45;82.98;98305.21;86065;1287;22485;-69
2022/12/14 07:25:05;;;;;;;178.20;97.60;;;;;;;-6.45;83.02;98298.38;86018;1287;22484;-70
2022/12/14 07:27:07;;;;;;;175.80;98.10;;;;;;;-6.43;82.97;98298.58;85616;1292;99585;-70
2022/12/14 07:29:10;;;;;;;171.80;95.50;;;;;;;-6.43;83.00;98292.42;85716;1290;22472;-70
2022/12/14 07:31:15;;;;;;;148.40;83.80;;;;;;;-6.42;83.06;98291.56;85824;1290;25271;-70
2022/12/14 07:33:16;;;;;;;145.40;81.80;;;;;;;-6.42;82.98;98292.42;85637;1290;99980;-70
2022/12/14 07:35:18;;;;;;;151.30;85.80;;;;;;;-6.42;83.00;98294.83;85753;1289;25846;-69
2022/12/14 07:37:20;;;;;;;156.50;86.70;;;;;;;-6.42;82.94;98295.50;85768;1287;25561;-69
2022/12/14 07:39:21;;;;;;;167.80;92.50;;;;;;;-6.42;83.06;98294.65;84886;1295;99539;-69
2022/12/14 07:41:29;;;;;;;163.60;90.50;;;;;;;-6.43;82.98;98291.40;85902;1282;24565;-70
2022/12/14 07:43:32;;;;;;;145.60;81.80;;;;;;;-6.42;82.94;98292.60;85772;1287;26616;-70
2022/12/14 07:45:33;;;;;;;143.40;80.20;;;;;;;-6.42;83.09;98287.30;85600;1290;99455;-70
2022/12/14 07:47:35;;;;;;;137.20;78.70;;;;;;;-6.41;82.92;98287.98;85805;1286;25390;-70
2022/12/14 07:49:36;;;;;;;133.40;78.20;;;;;;;-6.41;82.93;98286.11;85831;1286;25474;-70
2022/12/14 07:51:40;;;;;;;143.10;81.40;;;;;;;-6.41;83.07;98282.35;85765;1286;99446;-71
2022/12/14 07:53:43;;;;;;;143.00;81.10;;;;;;;-6.39;83.05;98285.10;85636;1302;25296;-71
2022/12/14 07:55:44;;;;;;;139.10;77.60;;;;;;;-6.38;83.23;98285.29;85785;1288;25458;-69
2022/12/14 07:57:46;;;;;;;140.20;78.60;;;;;;;-6.38;83.11;98280.84;85322;1294;99935;-70
2022/12/14 07:59:48;;;;;;;137.40;77.40;;;;;;;-6.37;82.99;98279.15;84969;1286;25312;-70
2022/12/14 08:01:51;;;;;;;129.60;74.80;;;;;;;-6.37;83.14;98283.08;84955;1291;25472;-68
2022/12/14 08:04:17;;;;;;;127.70;75.80;;;;;;;-6.36;83.10;98283.93;85162;1296;99520;-70
2022/12/14 08:06:21;;;;;;;126.60;73.40;;;;;;;-6.35;83.15;98276.94;85145;1290;22594;-69
2022/12/14 08:08:22;;;;;;;128.00;73.80;;;;;;;-6.32;83.13;98273.71;84906;1291;22605;-70
2022/12/14 08:10:24;;;;;;;120.40;72.40;;;;;;;-6.32;83.19;98273.88;84874;1289;99484;-70
2022/12/14 08:12:26;;;;;;;137.40;78.20;;;;;;;-6.30;83.24;98272.70;85889;1283;22541;-70
2022/12/14 08:14:27;;;;;;;130.40;75.70;;;;;;;-6.31;83.24;98272.00;85738;1290;22513;-70
2022/12/14 08:16:30;;;;;;;132.80;74.00;;;;;;;-6.28;83.27;98274.75;85708;1286;99270;-72
2022/12/14 08:18:32;;;;;;;128.20;74.20;;;;;;;-6.26;83.22;98271.87;85736;1290;24249;-71
2022/12/14 08:20:33;;;;;;;135.50;79.20;;;;;;;-6.24;83.25;98273.60;85836;1286;23205;-71
2022/12/14 08:22:35;;;;;;;131.60;74.50;;;;;;;-6.22;83.27;98276.17;85755;1289;99651;-70
2022/12/14 08:24:37;;;;;;;135.10;74.50;;;;;;;-6.20;83.19;98275.00;85906;1286;23955;-69
2022/12/14 08:26:39;;;;;;;129.00;76.10;;;;;;;-6.19;83.39;98269.35;84847;1296;99752;-69
2022/12/14 08:28:41;;;;;;;134.40;75.60;;;;;;;-6.18;83.32;98263.03;85052;1294;25303;-70
2022/12/14 08:30:42;;;;;;;139.50;74.30;;;;;;;-6.18;83.26;98261.50;84892;1290;22555;-69
2022/12/14 08:32:44;;;;;;;132.30;72.80;;;;;;;-6.19;83.25;98257.56;84904;1288;99700;-72
2022/12/14 08:34:46;;;;;;;121.90;73.50;;;;;;;-6.18;83.35;98256.71;84964;1290;22489;-71
2022/12/14 08:36:47;;;;;;;131.30;72.00;;;;;;;-6.18;83.36;98260.13;85071;1289;22695;-71
2022/12/14 08:38:57;;;;;;;128.60;78.30;;;;;;;-6.19;83.27;98266.29;86063;1289;100354;-70
2022/12/14 08:41:10;;;;;;;130.30;77.90;;;;;;;-6.19;83.15;98260.48;86048;1289;25378;-70
2022/12/14 08:43:11;;;;;;;137.80;77.70;;;;;;;-6.18;83.19;98260.30;86344;1297;22572;-70
2022/12/14 08:45:13;;;;;;;132.00;75.30;;;;;;;-6.17;83.24;98260.83;86218;1286;99362;-69
2022/12/14 08:47:15;;;;;;;124.80;71.50;;;;;;;-6.14;83.30;98263.75;86289;1289;22482;-71
2022/12/14 08:49:17;;;;;;;125.60;68.70;;;;;;;-6.13;83.38;98262.23;87241;1289;22527;-71
2022/12/14 08:51:19;;;;;;;116.40;65.30;;;;;;;-6.11;83.27;98264.63;87193;1289;98351;-71
2022/12/14 08:53:20;;;;;;;109.60;63.40;;;;;;;-6.11;83.23;98262.23;87383;1289;22455;-70
2022/12/14 08:55:23;;;;;;;107.40;61.70;;;;;;;-6.10;83.22;98254.21;87571;1293;22490;-70
2022/12/14 08:57:25;;;;;;;104.20;60.60;;;;;;;-6.10;83.23;98255.06;86991;1290;99371;-69
2022/12/14 08:59:26;;;;;;;105.40;61.40;;;;;;;-6.09;83.15;98257.28;86745;1289;23058;-70
2022/12/14 09:01:30;;;;;;;108.90;61.10;;;;;;;-6.08;83.19;98255.23;86901;1290;22534;-69
2022/12/14 09:03:32;;;;;;;110.80;62.50;;;;;;;-6.08;83.21;98254.38;86889;1302;99987;-70
2022/12/14 09:05:34;;;;;;;111.50;59.90;;;;;;;-6.08;83.22;98250.27;86872;1289;25951;-69
2022/12/14 09:07:36;;;;;;;102.90;60.30;;;;;;;-6.09;83.08;98242.06;86591;1290;24377;-70
2022/12/14 09:09:38;;;;;;;105.10;60.00;;;;;;;-6.09;83.19;98232.48;85826;1289;99479;-71
2022/12/14 09:11:39;;;;;;;108.70;60.90;;;;;;;-6.10;83.02;98227.19;85863;1285;22671;-70
2022/12/14 09:13:42;;;;;;;113.60;62.50;;;;;;;-6.09;83.00;98230.10;85847;1289;26595;-70
2022/12/14 09:15:44;;;;;;;106.40;60.00;;;;;;;-6.09;83.03;98225.48;85655;1297;99463;-70
2022/12/14 09:17:48;;;;;;;108.00;59.70;;;;;;;-6.06;83.13;98224.30;85911;1289;22509;-70
2022/12/14 09:19:50;;;;;;;113.40;61.00;;;;;;;-6.05;83.18;98230.98;85793;1296;24995;-70
2022/12/14 09:21:51;;;;;;;106.50;59.70;;;;;;;-6.05;83.23;98228.08;85752;1294;100273;-70
2022/12/14 09:23:53;;;;;;;111.60;59.20;;;;;;;-6.03;83.15;98228.59;85883;1287;22601;-71
2022/12/14 09:25:59;;;;;;;105.20;58.80;;;;;;;-6.01;83.20;98226.89;85773;1290;22609;-70
2022/12/14 09:28:00;;;;;;;106.30;59.90;;;;;;;-6.00;83.33;98223.47;85773;1289;99413;-71
2022/12/14 09:30:03;;;;;;;105.40;60.70;;;;;;;-5.98;83.29;98218.54;85810;1290;22501;-71
2022/12/14 09:32:04;;;;;;;107.90;58.00;;;;;;;-5.96;83.29;98213.89;85849;1287;27789;-70
2022/12/14 09:34:06;;;;;;;115.40;61.90;;;;;;;-5.94;83.26;98216.98;85715;1289;99488;-70
2022/12/14 09:36:12;;;;;;;100.40;58.40;;;;;;;-5.91;83.23;98221.61;85806;1294;24524;-70
2022/12/14 09:38:14;;;;;;;114.90;61.80;;;;;;;-5.90;83.37;98221.80;86098;1288;22569;-71
2022/12/14 09:40:16;;;;;;;115.20;64.50;;;;;;;-5.88;83.26;98219.07;85542;1283;99604;-71
2022/12/14 09:42:39;;;;;;;111.90;61.00;;;;;;;-5.88;83.23;98223.02;85679;1287;22563;-71
2022/12/14 09:45:13;;;;;;;113.50;65.20;;;;;;;-5.86;83.19;98221.81;84926;1286;100048;-71
2022/12/14 09:47:36;;;;;;;113.00;61.20;;;;;;;-5.85;83.27;98221.48;84907;1286;23465;-70
2022/12/14 09:50:01;;;;;;;108.80;62.60;;;;;;;-5.88;83.33;98211.04;85005;1286;22482;-71